createdAt,value
2016-11-16T12:17:53.308Z,1027.09
2016-11-16T12:18:53.299Z,1027.16
2016-11-16T12:19:53.295Z,1027.17
2016-11-16T12:20:53.286Z,1027.13
2016-11-16T12:21:53.282Z,1027.11
2016-11-16T12:22:53.273Z,1027.04
2016-11-16T12:23:53.266Z,1027.02
2016-11-16T12:24:53.259Z,1027.03
2016-11-16T12:25:53.251Z,1027.02
2016-11-16T12:26:53.245Z,1026.96
2016-11-16T12:27:53.238Z,1026.86
2016-11-16T12:28:53.231Z,1026.78
2016-11-16T12:29:53.225Z,1026.7
2016-11-16T12:30:53.217Z,1026.7
2016-11-16T12:31:53.210Z,1026.71
2016-11-16T12:32:53.203Z,1026.67
2016-11-16T12:33:53.197Z,1026.67
2016-11-16T12:34:53.190Z,1026.66
2016-11-16T12:35:53.181Z,1026.67
2016-11-16T12:36:53.177Z,1026.74
2016-11-16T12:37:53.169Z,1026.74
2016-11-16T12:38:53.160Z,1026.73
2016-11-16T12:39:53.155Z,1026.68
2016-11-16T12:40:53.147Z,1026.64
2016-11-16T12:41:53.140Z,1026.54
2016-11-16T12:42:53.132Z,1026.5
2016-11-16T12:43:53.127Z,1026.51
2016-11-16T12:44:53.120Z,1026.46
2016-11-16T12:45:53.114Z,1026.5
2016-11-16T12:46:53.105Z,1026.4
2016-11-16T12:47:53.098Z,1026.38
2016-11-16T12:48:53.091Z,1026.36
2016-11-16T12:49:53.084Z,1026.35
2016-11-16T12:50:53.076Z,1026.33
2016-11-16T12:51:53.068Z,1026.32
2016-11-16T12:52:53.062Z,1026.33
2016-11-16T12:53:53.055Z,1026.33
2016-11-16T12:54:53.047Z,1026.33
2016-11-16T12:55:53.041Z,1026.3
2016-11-16T12:56:53.034Z,1026.33
2016-11-16T12:57:53.026Z,1026.27
2016-11-16T12:58:53.019Z,1026.2
2016-11-16T12:59:53.017Z,1026.26
2016-11-16T13:00:53.011Z,1026.27
2016-11-16T13:01:53.001Z,1026.37
2016-11-16T13:02:52.991Z,1026.43
2016-11-16T13:03:52.984Z,1026.45
2016-11-16T13:04:52.976Z,1026.46
2016-11-16T13:05:52.970Z,1026.47
2016-11-16T13:06:52.965Z,1026.43
2016-11-16T13:07:52.955Z,1026.39
2016-11-16T13:08:52.947Z,1026.37
2016-11-16T13:09:52.940Z,1026.33
2016-11-16T13:10:52.933Z,1026.32
2016-11-16T13:11:52.926Z,1026.26
2016-11-16T13:12:52.918Z,1026.2
2016-11-16T13:13:52.913Z,1026.25
2016-11-16T13:14:52.907Z,1026.28
2016-11-16T13:15:52.896Z,1026.34
2016-11-16T13:16:52.889Z,1026.35
2016-11-16T13:17:52.884Z,1026.39
2016-11-16T13:18:52.876Z,1026.4
2016-11-16T13:19:52.868Z,1026.43
2016-11-16T13:20:52.860Z,1026.4
2016-11-16T13:21:52.857Z,1026.37
2016-11-16T13:22:52.846Z,1026.38
2016-11-16T13:23:52.839Z,1026.35
2016-11-16T13:24:52.833Z,1026.36
2016-11-16T13:25:52.824Z,1026.31
2016-11-16T13:26:52.816Z,1026.39
2016-11-16T13:27:52.810Z,1026.33
2016-11-16T13:28:52.801Z,1026.33
2016-11-16T13:29:52.795Z,1026.31
2016-11-16T13:30:52.786Z,1026.32
2016-11-16T13:31:52.779Z,1026.34
2016-11-16T13:32:52.772Z,1026.3
2016-11-16T13:33:52.766Z,1026.28
2016-11-16T13:34:52.757Z,1026.27
2016-11-16T13:35:52.752Z,1026.2
2016-11-16T13:36:52.743Z,1026.19
2016-11-16T13:37:52.733Z,1026.15
2016-11-16T13:38:52.725Z,1026.18
2016-11-16T13:39:52.718Z,1026.21
2016-11-16T13:40:52.713Z,1026.2
2016-11-16T13:41:52.703Z,1026.26
2016-11-16T13:42:52.694Z,1026.24
2016-11-16T13:43:52.687Z,1026.31
2016-11-16T13:44:52.679Z,1026.32
2016-11-16T13:45:52.671Z,1026.35
2016-11-16T13:46:52.663Z,1026.27
2016-11-16T13:47:52.659Z,1026.3
2016-11-16T13:48:52.649Z,1026.22
2016-11-16T13:49:52.639Z,1026.21
2016-11-16T13:50:52.633Z,1026.18
2016-11-16T13:51:52.625Z,1026.19
2016-11-16T13:52:52.617Z,1026.15
2016-11-16T13:53:52.609Z,1026.09
2016-11-16T13:54:52.601Z,1026.11
2016-11-16T13:55:52.592Z,1026.14
2016-11-16T13:56:52.585Z,1026.15
2016-11-16T13:57:52.577Z,1026.16
2016-11-16T13:58:52.569Z,1026.16
2016-11-16T13:59:52.560Z,1026.13
2016-11-16T14:00:52.559Z,1026.03
2016-11-16T14:01:52.544Z,1026.04
2016-11-16T14:02:52.534Z,1026.12
2016-11-16T14:03:52.526Z,1026.19
2016-11-16T14:04:52.519Z,1026.21
2016-11-16T14:05:52.511Z,1026.19
2016-11-16T14:06:52.503Z,1026.17
2016-11-16T14:07:52.494Z,1026.17
2016-11-16T14:08:52.487Z,1026.23
2016-11-16T14:09:52.478Z,1026.22
2016-11-16T14:10:52.469Z,1026.25
2016-11-16T14:11:52.460Z,1026.32
2016-11-16T14:12:52.453Z,1026.32
2016-11-16T14:13:52.444Z,1026.36
2016-11-16T14:14:52.638Z,1026.32
2016-11-16T14:15:52.427Z,1026.31
2016-11-16T14:16:52.419Z,1026.25
2016-11-16T14:17:52.425Z,1026.28
2016-11-16T14:18:52.401Z,1026.32
2016-11-16T14:19:52.395Z,1026.29
2016-11-16T14:20:52.386Z,1026.29
2016-11-16T14:21:52.378Z,1026.27
2016-11-16T14:22:52.371Z,1026.22
2016-11-16T14:23:52.361Z,1026.2
2016-11-16T14:24:52.351Z,1026.19
2016-11-16T14:25:52.342Z,1026.22
2016-11-16T14:26:52.337Z,1026.23
2016-11-16T14:27:52.333Z,1026.16
2016-11-16T14:28:52.319Z,1026.13
2016-11-16T14:29:52.310Z,1026.03
2016-11-16T14:30:52.302Z,1026.07
2016-11-16T14:31:52.296Z,1026.1
2016-11-16T14:32:52.288Z,1026.16
2016-11-16T14:33:52.277Z,1026.14
2016-11-16T14:34:52.269Z,1026.12
2016-11-16T14:35:52.261Z,1026.16
2016-11-16T14:36:52.253Z,1026.15
2016-11-16T14:37:52.244Z,1026.2
2016-11-16T14:38:52.237Z,1026.22
2016-11-16T14:39:52.228Z,1026.23
2016-11-16T14:40:52.220Z,1026.22
2016-11-16T14:41:52.213Z,1026.25
2016-11-16T14:42:52.204Z,1026.29
2016-11-16T14:43:52.195Z,1026.28
2016-11-16T14:44:52.187Z,1026.32
2016-11-16T14:45:52.179Z,1026.33
2016-11-16T14:46:52.170Z,1026.25
2016-11-16T14:47:52.161Z,1026.29
2016-11-16T14:48:52.152Z,1026.32
2016-11-16T14:49:52.145Z,1026.3
2016-11-16T14:50:52.135Z,1026.25
2016-11-16T14:51:52.128Z,1026.22
2016-11-16T14:52:52.119Z,1026.24
2016-11-16T14:53:52.113Z,1026.32
2016-11-16T14:54:52.103Z,1026.33
2016-11-16T14:55:52.095Z,1026.31
2016-11-16T14:56:52.086Z,1026.32
2016-11-16T14:57:52.076Z,1026.35
2016-11-16T14:58:52.069Z,1026.35
2016-11-16T14:59:52.062Z,1026.34
2016-11-16T15:00:52.053Z,1026.4
2016-11-16T15:01:52.043Z,1026.4
2016-11-16T15:02:52.035Z,1026.37
2016-11-16T15:03:52.027Z,1026.41
2016-11-16T15:04:52.019Z,1026.39
2016-11-16T15:05:52.009Z,1026.38
2016-11-16T15:06:52.002Z,1026.38
2016-11-16T15:07:51.993Z,1026.36
2016-11-16T15:08:51.985Z,1026.4
2016-11-16T15:09:51.977Z,1026.41
2016-11-16T15:10:51.969Z,1026.41
2016-11-16T15:11:51.962Z,1026.39
2016-11-16T15:12:51.954Z,1026.44
2016-11-16T15:13:51.942Z,1026.38
2016-11-16T15:14:51.935Z,1026.4
2016-11-16T15:15:51.928Z,1026.38
2016-11-16T15:16:51.918Z,1026.4
2016-11-16T15:17:51.909Z,1026.39
2016-11-16T15:18:51.902Z,1026.4
2016-11-16T15:19:51.894Z,1026.38
2016-11-16T15:20:51.885Z,1026.38
2016-11-16T15:21:51.875Z,1026.35
2016-11-16T15:22:51.866Z,1026.34
2016-11-16T15:23:51.859Z,1026.33
2016-11-16T15:24:51.851Z,1026.32
2016-11-16T15:25:51.843Z,1026.28
2016-11-16T15:26:51.834Z,1026.28
2016-11-16T15:27:51.827Z,1026.28
2016-11-16T15:28:51.817Z,1026.29
2016-11-16T15:29:51.809Z,1026.28
2016-11-16T15:30:51.804Z,1026.35
2016-11-16T15:31:51.792Z,1026.3
2016-11-16T15:32:51.784Z,1026.34
2016-11-16T15:33:51.776Z,1026.34
2016-11-16T15:34:51.766Z,1026.36
2016-11-16T15:35:51.759Z,1026.32
2016-11-16T15:36:51.752Z,1026.31
2016-11-16T15:37:51.742Z,1026.31
2016-11-16T15:38:51.732Z,1026.28
2016-11-16T15:39:51.726Z,1026.28
2016-11-16T15:40:51.716Z,1026.25
2016-11-16T15:41:51.708Z,1026.26
2016-11-16T15:42:51.700Z,1026.23
2016-11-16T15:43:51.690Z,1026.24
2016-11-16T15:44:51.682Z,1026.15
2016-11-16T15:45:51.674Z,1026.18
2016-11-16T15:46:51.665Z,1026.21
2016-11-16T15:47:51.659Z,1026.19
2016-11-16T15:48:51.648Z,1026.18
2016-11-16T15:49:51.639Z,1026.13
2016-11-16T15:50:51.631Z,1026.15
2016-11-16T15:51:51.623Z,1026.15
2016-11-16T15:52:51.615Z,1026.16
2016-11-16T15:53:51.606Z,1026.11
2016-11-16T15:54:51.597Z,1026.12
2016-11-16T15:55:51.589Z,1026.1
2016-11-16T15:56:51.582Z,1026.1
2016-11-16T15:57:51.573Z,1026.09
2016-11-16T15:58:51.564Z,1026.1
2016-11-16T15:59:51.555Z,1026.01
2016-11-16T16:00:51.548Z,1025.97
2016-11-16T16:01:51.538Z,1026.02
2016-11-16T16:02:51.530Z,1026.02
2016-11-16T16:03:51.522Z,1026.03
2016-11-16T16:04:51.513Z,1026.01
2016-11-16T16:05:51.504Z,1025.97
2016-11-16T16:06:51.496Z,1025.88
2016-11-16T16:07:51.488Z,1025.93
2016-11-16T16:08:51.479Z,1025.94
2016-11-16T16:09:51.472Z,1026
2016-11-16T16:10:51.462Z,1025.97
2016-11-16T16:11:51.453Z,1025.9
2016-11-16T16:12:51.446Z,1025.84
2016-11-16T16:13:51.437Z,1025.85
2016-11-16T16:14:51.429Z,1025.85
2016-11-16T16:15:51.420Z,1025.8
2016-11-16T16:16:51.416Z,1025.8
2016-11-16T16:17:51.403Z,1025.76
2016-11-16T16:18:51.394Z,1025.75
2016-11-16T16:19:51.388Z,1025.75
2016-11-16T16:20:51.377Z,1025.66
2016-11-16T16:21:51.368Z,1025.7
2016-11-16T16:22:51.362Z,1025.61
2016-11-16T16:23:51.352Z,1025.66
2016-11-16T16:24:51.343Z,1025.69
2016-11-16T16:25:51.335Z,1025.69
2016-11-16T16:26:51.326Z,1025.69
2016-11-16T16:27:51.317Z,1025.68
2016-11-16T16:28:51.310Z,1025.67
2016-11-16T16:29:51.301Z,1025.63
2016-11-16T16:30:51.292Z,1025.63
2016-11-16T16:31:51.285Z,1025.64
2016-11-16T16:32:51.275Z,1025.63
2016-11-16T16:33:51.267Z,1025.52
2016-11-16T16:34:51.258Z,1025.53
2016-11-16T16:35:51.249Z,1025.55
2016-11-16T16:36:51.242Z,1025.65
2016-11-16T16:37:51.233Z,1025.69
2016-11-16T16:38:51.226Z,1025.72
2016-11-16T16:39:51.217Z,1025.69
2016-11-16T16:40:51.208Z,1025.65
2016-11-16T16:41:51.200Z,1025.65
2016-11-16T16:42:51.192Z,1025.58
2016-11-16T16:43:51.183Z,1025.59
2016-11-16T16:44:51.175Z,1025.6
2016-11-16T16:45:51.168Z,1025.66
2016-11-16T16:46:51.159Z,1025.65
2016-11-16T16:47:51.151Z,1025.66
2016-11-16T16:48:51.142Z,1025.62
2016-11-16T16:49:51.134Z,1025.6
2016-11-16T16:50:51.126Z,1025.57
2016-11-16T16:51:51.116Z,1025.52
2016-11-16T16:52:51.108Z,1025.49
2016-11-16T16:53:51.105Z,1025.49
2016-11-16T16:54:51.095Z,1025.5
2016-11-16T16:55:51.085Z,1025.5
2016-11-16T16:56:51.076Z,1025.51
2016-11-16T16:57:51.068Z,1025.47
2016-11-16T16:58:51.060Z,1025.53
2016-11-16T16:59:51.049Z,1025.49
2016-11-16T17:00:51.043Z,1025.49
2016-11-16T17:01:51.034Z,1025.51
2016-11-16T17:02:51.028Z,1025.51
2016-11-16T17:03:51.019Z,1025.49
2016-11-16T17:04:51.010Z,1025.47
2016-11-16T17:05:51.001Z,1025.45
2016-11-16T17:06:50.993Z,1025.43
2016-11-16T17:07:50.985Z,1025.38
2016-11-16T17:08:50.978Z,1025.37
2016-11-16T17:09:50.970Z,1025.37
2016-11-16T17:10:50.961Z,1025.34
2016-11-16T17:11:50.953Z,1025.34
2016-11-16T17:12:50.944Z,1025.35
2016-11-16T17:13:50.937Z,1025.37
2016-11-16T17:14:50.930Z,1025.41
2016-11-16T17:15:50.921Z,1025.36
2016-11-16T17:16:50.913Z,1025.36
2016-11-16T17:17:50.904Z,1025.34
2016-11-16T17:18:50.897Z,1025.4
2016-11-16T17:19:50.890Z,1025.43
2016-11-16T17:20:50.880Z,1025.41
2016-11-16T17:21:50.874Z,1025.4
2016-11-16T17:22:50.866Z,1025.4
2016-11-16T17:23:50.856Z,1025.36
2016-11-16T17:24:50.849Z,1025.4
2016-11-16T17:25:50.841Z,1025.38
2016-11-16T17:26:50.833Z,1025.39
2016-11-16T17:27:50.826Z,1025.34
2016-11-16T17:28:50.817Z,1025.35
2016-11-16T17:29:50.810Z,1025.45
2016-11-16T17:30:50.802Z,1025.44
2016-11-16T17:31:50.793Z,1025.45
2016-11-16T17:32:50.785Z,1025.4
2016-11-16T17:33:50.778Z,1025.41
2016-11-16T17:34:50.768Z,1025.35
2016-11-16T17:35:50.760Z,1025.38
2016-11-16T17:36:50.754Z,1025.36
2016-11-16T17:37:50.746Z,1025.34
2016-11-16T17:38:50.737Z,1025.33
2016-11-16T17:39:50.728Z,1025.34
2016-11-16T17:40:50.722Z,1025.33
2016-11-16T17:41:50.715Z,1025.31
2016-11-16T17:42:50.706Z,1025.3
2016-11-16T17:43:50.697Z,1025.19
2016-11-16T17:44:50.688Z,1025.25
2016-11-16T17:45:50.681Z,1025.23
2016-11-16T17:46:50.672Z,1025.23
2016-11-16T17:47:50.664Z,1025.23
2016-11-16T17:48:50.657Z,1025.21
2016-11-16T17:49:50.649Z,1025.26
2016-11-16T17:50:50.641Z,1025.22
2016-11-16T17:51:50.632Z,1025.22
2016-11-16T17:52:50.625Z,1025.23
2016-11-16T17:53:50.622Z,1025.23
2016-11-16T17:54:50.609Z,1025.21
2016-11-16T17:55:50.601Z,1025.19
2016-11-16T17:56:50.592Z,1025.15
2016-11-16T17:57:50.585Z,1025.15
2016-11-16T17:58:50.577Z,1025.15
2016-11-16T17:59:50.569Z,1025.13
2016-11-16T18:00:50.910Z,1025.18
2016-11-16T18:01:50.551Z,1025.18
2016-11-16T18:02:50.545Z,1025.12
2016-11-16T18:03:50.537Z,1025.12
2016-11-16T18:04:50.528Z,1025.14
2016-11-16T18:05:50.520Z,1025.15
2016-11-16T18:06:50.511Z,1025.14
2016-11-16T18:07:50.502Z,1025.14
2016-11-16T18:08:50.495Z,1025.11
2016-11-16T18:09:50.487Z,1025.19
2016-11-16T18:10:50.478Z,1025.2
2016-11-16T18:11:50.470Z,1025.22
2016-11-16T18:12:50.462Z,1025.27
2016-11-16T18:13:50.452Z,1025.26
2016-11-16T18:14:50.447Z,1025.2
2016-11-16T18:15:50.436Z,1025.19
2016-11-16T18:16:50.429Z,1025.17
2016-11-16T18:17:50.424Z,1025.17
2016-11-16T18:18:50.412Z,1025.15
2016-11-16T18:19:50.403Z,1025.2
2016-11-16T18:20:50.396Z,1025.21
2016-11-16T18:21:50.388Z,1025.19
2016-11-16T18:22:50.379Z,1025.24
2016-11-16T18:23:50.371Z,1025.24
2016-11-16T18:24:50.364Z,1025.2
2016-11-16T18:25:50.356Z,1025.18
2016-11-16T18:26:50.348Z,1025.12
2016-11-16T18:27:50.339Z,1025.1
2016-11-16T18:28:50.332Z,1025.05
2016-11-16T18:29:50.322Z,1025.01
2016-11-16T18:30:50.314Z,1024.99
2016-11-16T18:31:50.306Z,1024.95
2016-11-16T18:32:50.300Z,1024.96
2016-11-16T18:33:50.290Z,1024.99
2016-11-16T18:34:50.282Z,1024.98
2016-11-16T18:35:50.275Z,1024.96
2016-11-16T18:36:50.266Z,1024.95
2016-11-16T18:37:50.259Z,1024.95
2016-11-16T18:38:50.253Z,1024.94
2016-11-16T18:39:50.243Z,1024.9
2016-11-16T18:40:50.235Z,1024.88
2016-11-16T18:41:50.228Z,1024.84
2016-11-16T18:42:50.218Z,1024.83
2016-11-16T18:43:50.211Z,1024.79
2016-11-16T18:44:50.203Z,1024.77
2016-11-16T18:45:50.196Z,1024.89
2016-11-16T18:46:50.187Z,1024.99
2016-11-16T18:47:50.178Z,1025.03
2016-11-16T18:48:50.170Z,1025.04
2016-11-16T18:49:50.162Z,1025.03
2016-11-16T18:50:50.155Z,1025.06
2016-11-16T18:51:50.147Z,1025.05
2016-11-16T18:52:50.139Z,1025.03
2016-11-16T18:53:50.130Z,1025.03
2016-11-16T18:54:50.123Z,1025.08
2016-11-16T18:55:50.113Z,1025.1
2016-11-16T18:56:50.107Z,1025.17
2016-11-16T18:57:50.098Z,1025.22
2016-11-16T18:58:50.090Z,1025.2
2016-11-16T18:59:50.082Z,1025.23
2016-11-16T19:00:50.073Z,1025.28
2016-11-16T19:01:50.066Z,1025.35
2016-11-16T19:02:50.058Z,1025.32
2016-11-16T19:03:50.049Z,1025.38
2016-11-16T19:04:50.042Z,1025.37
2016-11-16T19:05:50.034Z,1025.42
2016-11-16T19:06:50.027Z,1025.35
2016-11-16T19:07:50.017Z,1025.37
2016-11-16T19:08:50.008Z,1025.38
2016-11-16T19:09:50.001Z,1025.35
2016-11-16T19:10:49.993Z,1025.36
2016-11-16T19:11:49.983Z,1025.43
2016-11-16T19:12:49.977Z,1025.4
2016-11-16T19:13:49.967Z,1025.46
2016-11-16T19:14:49.960Z,1025.42
2016-11-16T19:15:49.950Z,1025.42
2016-11-16T19:16:49.942Z,1025.41
2016-11-16T19:17:49.935Z,1025.43
2016-11-16T19:18:49.927Z,1025.38
2016-11-16T19:19:49.918Z,1025.32
2016-11-16T19:20:49.909Z,1025.28
2016-11-16T19:21:49.900Z,1025.23
2016-11-16T19:22:49.892Z,1025.14
2016-11-16T19:23:49.885Z,1025.14
2016-11-16T19:24:49.875Z,1025.13
2016-11-16T19:25:49.867Z,1025.11
2016-11-16T19:26:49.859Z,1025.08
2016-11-16T19:27:49.851Z,1025.11
2016-11-16T19:28:49.841Z,1025.11
2016-11-16T19:29:49.833Z,1025.12
2016-11-16T19:30:49.825Z,1025.08
2016-11-16T19:31:49.817Z,1025.02
2016-11-16T19:32:49.809Z,1024.99
2016-11-16T19:33:49.804Z,1025.04
2016-11-16T19:34:49.792Z,1025.01
2016-11-16T19:35:49.784Z,1024.96
2016-11-16T19:36:49.775Z,1024.95
2016-11-16T19:37:49.767Z,1024.91
2016-11-16T19:38:49.761Z,1024.91
2016-11-16T19:39:49.750Z,1024.87
2016-11-16T19:40:49.744Z,1024.86
2016-11-16T19:41:49.733Z,1024.84
2016-11-16T19:42:49.725Z,1024.86
2016-11-16T19:43:49.717Z,1024.79
2016-11-16T19:44:49.711Z,1024.8
2016-11-16T19:45:49.702Z,1024.8
2016-11-16T19:46:49.693Z,1024.79
2016-11-16T19:47:49.684Z,1024.81
2016-11-16T19:48:49.677Z,1024.85
2016-11-16T19:49:49.668Z,1024.85
2016-11-16T19:50:49.665Z,1024.85
2016-11-16T19:51:49.654Z,1024.83
2016-11-16T19:52:49.644Z,1024.82
2016-11-16T19:53:49.635Z,1024.76
2016-11-16T19:54:49.627Z,1024.73
2016-11-16T19:55:49.620Z,1024.75
2016-11-16T19:56:49.611Z,1024.75
2016-11-16T19:57:49.602Z,1024.8
2016-11-16T19:58:49.596Z,1024.85
2016-11-16T19:59:49.588Z,1024.84
2016-11-16T20:00:49.578Z,1024.81
2016-11-16T20:01:49.569Z,1024.78
2016-11-16T20:02:49.562Z,1024.77
2016-11-16T20:03:49.553Z,1024.79
2016-11-16T20:04:49.545Z,1024.76
2016-11-16T20:05:49.536Z,1024.78
2016-11-16T20:06:49.530Z,1024.8
2016-11-16T20:07:49.522Z,1024.8
2016-11-16T20:08:49.512Z,1024.8
2016-11-16T20:09:49.504Z,1024.81
2016-11-16T20:10:49.497Z,1024.83
2016-11-16T20:11:49.488Z,1024.85
2016-11-16T20:12:49.481Z,1024.86
2016-11-16T20:13:49.473Z,1024.92
2016-11-16T20:14:49.464Z,1024.89
2016-11-16T20:15:49.456Z,1024.93
2016-11-16T20:16:49.447Z,1024.89
2016-11-16T20:17:49.440Z,1024.86
2016-11-16T20:18:49.432Z,1024.88
2016-11-16T20:19:49.424Z,1024.83
2016-11-16T20:20:49.415Z,1024.82
2016-11-16T20:21:49.409Z,1024.78
2016-11-16T20:22:49.398Z,1024.79
2016-11-16T20:23:49.391Z,1024.75
2016-11-16T20:24:49.382Z,1024.75
2016-11-16T20:25:49.374Z,1024.74
2016-11-16T20:26:49.366Z,1024.71
2016-11-16T20:27:49.358Z,1024.72
2016-11-16T20:28:49.349Z,1024.63
2016-11-16T20:29:49.341Z,1024.66
2016-11-16T20:30:49.331Z,1024.72
2016-11-16T20:31:49.325Z,1024.69
2016-11-16T20:32:49.317Z,1024.7
2016-11-16T20:33:49.308Z,1024.65
2016-11-16T20:34:49.300Z,1024.62
2016-11-16T20:35:49.290Z,1024.58
2016-11-16T20:36:49.284Z,1024.58
2016-11-16T20:37:49.276Z,1024.63
2016-11-16T20:38:49.266Z,1024.7
2016-11-16T20:39:49.259Z,1024.67
2016-11-16T20:40:49.251Z,1024.74
2016-11-16T20:41:49.244Z,1024.73
2016-11-16T20:42:49.235Z,1024.76
2016-11-16T20:43:49.228Z,1024.76
2016-11-16T20:44:49.219Z,1024.74
2016-11-16T20:45:49.211Z,1024.74
2016-11-16T20:46:49.202Z,1024.76
2016-11-16T20:47:49.195Z,1024.63
2016-11-16T20:48:49.187Z,1024.61
2016-11-16T20:49:49.178Z,1024.63
2016-11-16T20:50:49.171Z,1024.58
2016-11-16T20:51:49.166Z,1024.59
2016-11-16T20:52:49.155Z,1024.55
2016-11-16T20:53:49.147Z,1024.52
2016-11-16T20:54:49.140Z,1024.5
2016-11-16T20:55:49.131Z,1024.53
2016-11-16T20:56:49.123Z,1024.53
2016-11-16T20:57:49.115Z,1024.61
2016-11-16T20:58:49.108Z,1024.7
2016-11-16T20:59:49.098Z,1024.72
2016-11-16T21:00:49.093Z,1024.76
2016-11-16T21:01:49.083Z,1024.81
2016-11-16T21:02:49.075Z,1024.91
2016-11-16T21:03:49.066Z,1024.91
2016-11-16T21:04:49.059Z,1024.92
2016-11-16T21:05:49.053Z,1024.88
2016-11-16T21:06:49.043Z,1024.91
2016-11-16T21:07:49.037Z,1024.93
2016-11-16T21:08:49.028Z,1024.88
2016-11-16T21:09:49.020Z,1024.94
2016-11-16T21:10:49.012Z,1024.92
2016-11-16T21:11:49.004Z,1024.92
2016-11-16T21:12:48.995Z,1024.9
2016-11-16T21:13:48.987Z,1024.96
2016-11-16T21:14:48.978Z,1024.96
2016-11-16T21:15:48.971Z,1024.95
2016-11-16T21:16:48.962Z,1024.97
2016-11-16T21:17:48.955Z,1025.02
2016-11-16T21:18:48.945Z,1024.98
2016-11-16T21:19:48.938Z,1025.05
2016-11-16T21:20:48.931Z,1025.01
2016-11-16T21:21:48.921Z,1024.98
2016-11-16T21:22:48.915Z,1024.93
2016-11-16T21:23:48.905Z,1024.94
2016-11-16T21:24:48.898Z,1024.99
2016-11-16T21:25:48.888Z,1025
2016-11-16T21:26:48.879Z,1025.01
2016-11-16T21:27:48.872Z,1025.01
2016-11-16T21:28:48.864Z,1025.02
2016-11-16T21:29:48.855Z,1025
2016-11-16T21:30:48.848Z,1025.01
2016-11-16T21:31:48.839Z,1025
2016-11-16T21:32:48.830Z,1024.98
2016-11-16T21:33:48.821Z,1025
2016-11-16T21:34:48.814Z,1025.02
2016-11-16T21:35:48.806Z,1025.02
2016-11-16T21:36:48.796Z,1025
2016-11-16T21:37:48.788Z,1025.02
2016-11-16T21:38:48.781Z,1025.01
2016-11-16T21:39:48.772Z,1024.97
2016-11-16T21:40:48.764Z,1025
2016-11-16T21:41:48.755Z,1024.99
2016-11-16T21:42:48.745Z,1024.94
2016-11-16T21:43:48.739Z,1024.97
2016-11-16T21:44:48.729Z,1024.95
2016-11-16T21:45:48.720Z,1024.96
2016-11-16T21:46:48.711Z,1025
2016-11-16T21:47:48.705Z,1025.07
2016-11-16T21:48:48.696Z,1025.07
2016-11-16T21:49:48.687Z,1025.1
2016-11-16T21:50:48.677Z,1025.11
2016-11-16T21:51:48.670Z,1025.1
2016-11-16T21:52:48.661Z,1025.1
2016-11-16T21:53:48.653Z,1025.05
2016-11-16T21:54:48.643Z,1025.1
2016-11-16T21:55:48.634Z,1025.07
2016-11-16T21:56:48.630Z,1025.1
2016-11-16T21:57:48.618Z,1025.05
2016-11-16T21:58:48.612Z,1025.07
2016-11-16T21:59:48.600Z,1025.02
2016-11-16T22:00:48.593Z,1025.01
2016-11-16T22:01:48.582Z,1025.05
2016-11-16T22:02:48.575Z,1025.04
2016-11-16T22:03:48.567Z,1025.01
2016-11-16T22:04:48.558Z,1025.03
2016-11-16T22:05:48.548Z,1024.99
2016-11-16T22:06:48.542Z,1025.04
2016-11-16T22:07:48.530Z,1025
2016-11-16T22:08:48.522Z,1025
2016-11-16T22:09:48.515Z,1024.98
2016-11-16T22:10:48.506Z,1025.05
2016-11-16T22:11:48.496Z,1025
2016-11-16T22:12:48.488Z,1024.98
2016-11-16T22:13:48.478Z,1024.98
2016-11-16T22:14:48.471Z,1024.96
2016-11-16T22:15:48.461Z,1024.95
2016-11-16T22:16:48.452Z,1024.94
2016-11-16T22:17:48.445Z,1024.95
2016-11-16T22:18:48.435Z,1024.96
2016-11-16T22:19:48.426Z,1024.95
2016-11-16T22:20:48.418Z,1024.93
2016-11-16T22:21:48.409Z,1024.95
2016-11-16T22:22:48.401Z,1025
2016-11-16T22:23:48.391Z,1025
2016-11-16T22:24:48.382Z,1024.98
2016-11-16T22:25:48.374Z,1024.95
2016-11-16T22:26:48.365Z,1024.96
2016-11-16T22:27:48.360Z,1024.98
2016-11-16T22:28:48.347Z,1025
2016-11-16T22:29:48.340Z,1024.99
2016-11-16T22:30:48.331Z,1024.95
2016-11-16T22:31:48.322Z,1024.93
2016-11-16T22:32:48.311Z,1024.92
2016-11-16T22:33:48.305Z,1024.96
2016-11-16T22:34:48.295Z,1024.92
2016-11-16T22:35:48.286Z,1024.92
2016-11-16T22:36:48.278Z,1024.94
2016-11-16T22:37:48.268Z,1024.92
2016-11-16T22:38:48.261Z,1024.96
2016-11-16T22:39:48.251Z,1024.92
2016-11-16T22:40:48.242Z,1024.92
2016-11-16T22:41:48.233Z,1024.85
2016-11-16T22:42:48.226Z,1024.93
2016-11-16T22:43:48.216Z,1024.93
2016-11-16T22:44:48.207Z,1024.94
2016-11-16T22:45:48.200Z,1024.89
2016-11-16T22:46:48.190Z,1024.93
2016-11-16T22:47:48.182Z,1024.9
2016-11-16T22:48:48.174Z,1024.84
2016-11-16T22:49:48.164Z,1024.85
2016-11-16T22:50:48.156Z,1024.85
2016-11-16T22:51:48.146Z,1024.82
2016-11-16T22:52:48.137Z,1024.81
2016-11-16T22:53:48.129Z,1024.79
2016-11-16T22:54:48.121Z,1024.79
2016-11-16T22:55:48.113Z,1024.75
2016-11-16T22:56:48.103Z,1024.73
2016-11-16T22:57:48.095Z,1024.74
2016-11-16T22:58:48.085Z,1024.71
2016-11-16T22:59:48.077Z,1024.7
2016-11-16T23:00:48.066Z,1024.69
2016-11-16T23:01:48.058Z,1024.74
2016-11-16T23:02:48.050Z,1024.79
2016-11-16T23:03:48.041Z,1024.79
2016-11-16T23:04:48.031Z,1024.78
2016-11-16T23:05:48.025Z,1024.78
2016-11-16T23:06:48.015Z,1024.76
2016-11-16T23:07:48.006Z,1024.73
2016-11-16T23:08:47.998Z,1024.72
2016-11-16T23:09:47.987Z,1024.73
2016-11-16T23:10:47.980Z,1024.7
2016-11-16T23:11:47.971Z,1024.72
2016-11-16T23:12:47.962Z,1024.69
2016-11-16T23:13:47.952Z,1024.72
2016-11-16T23:14:47.945Z,1024.75
2016-11-16T23:15:47.936Z,1024.74
2016-11-16T23:16:47.927Z,1024.76
2016-11-16T23:17:47.919Z,1024.8
2016-11-16T23:18:47.908Z,1024.82
2016-11-16T23:19:47.900Z,1024.79
2016-11-16T23:20:47.891Z,1024.83
2016-11-16T23:21:47.883Z,1024.8
2016-11-16T23:22:47.879Z,1024.84
2016-11-16T23:23:47.866Z,1024.79
2016-11-16T23:24:47.856Z,1024.79
2016-11-16T23:25:47.848Z,1024.79
2016-11-16T23:26:47.838Z,1024.79
2016-11-16T23:27:47.830Z,1024.74
2016-11-16T23:28:47.822Z,1024.73
2016-11-16T23:29:47.812Z,1024.75
2016-11-16T23:30:47.802Z,1024.78
2016-11-16T23:31:47.793Z,1024.79
2016-11-16T23:32:47.784Z,1024.79
2016-11-16T23:33:47.777Z,1024.73
2016-11-16T23:34:47.768Z,1024.77
2016-11-16T23:35:47.758Z,1024.82
2016-11-16T23:36:47.751Z,1024.75
2016-11-16T23:37:47.743Z,1024.78
2016-11-16T23:38:47.731Z,1024.76
2016-11-16T23:39:47.723Z,1024.76
2016-11-16T23:40:47.713Z,1024.77
2016-11-16T23:41:47.705Z,1024.79
2016-11-16T23:42:47.697Z,1024.78
2016-11-16T23:43:47.686Z,1024.79
2016-11-16T23:44:47.677Z,1024.76
2016-11-16T23:45:47.671Z,1024.75
2016-11-16T23:46:47.661Z,1024.76
2016-11-16T23:47:47.650Z,1024.75
2016-11-16T23:48:47.641Z,1024.75
2016-11-16T23:49:47.632Z,1024.8
2016-11-16T23:50:47.624Z,1024.77
2016-11-16T23:51:47.614Z,1024.75
2016-11-16T23:52:47.606Z,1024.76
2016-11-16T23:53:47.597Z,1024.72
2016-11-16T23:54:47.587Z,1024.68
2016-11-16T23:55:47.578Z,1024.74
2016-11-16T23:56:47.570Z,1024.67
2016-11-16T23:57:47.560Z,1024.72
2016-11-16T23:58:47.551Z,1024.68
2016-11-16T23:59:47.543Z,1024.69
